Time;durP1;ratioP1;P1;durP2;ratioP2;P2;SDS_P1;SDS_P2;PMS_P1;PMS_P2;Temp;Humidity;BMP_temperature;BMP_pressure;BME280_temperature;BME280_humidity;BME280_pressure;Samples;Min_cycle;Max_cycle;Signal;HPM_P1;HPM_P2
2022/05/08 00:01:54;;;;;;;21.15;4.28;;;;;;;;;;4929616;29;20063;-68
2022/05/08 00:04:21;;;;;;;22.35;4.57;;;;;;;;;;4948493;28;20047;-68
2022/05/08 00:06:49;;;;;;;29.50;4.57;;;;;;;;;;4947624;28;20134;-68
2022/05/08 00:09:16;;;;;;;26.27;4.20;;;;;;;;;;4925992;29;20059;-68
2022/05/08 00:11:44;;;;;;;23.42;4.40;;;;;;;;;;4947617;28;20059;-68
2022/05/08 00:14:11;;;;;;;20.95;4.07;;;;;;;;;;4927552;28;20569;-68
2022/05/08 00:16:39;;;;;;;23.95;4.47;;;;;;;;;;4945441;29;20383;-68
2022/05/08 00:19:06;;;;;;;25.00;4.53;;;;;;;;;;4930155;29;20072;-68
2022/05/08 00:21:33;;;;;;;28.42;4.35;;;;;;;;;;4946456;29;20050;-68
2022/05/08 00:24:00;;;;;;;20.98;3.38;;;;;;;;;;4945233;28;20189;-68
2022/05/08 00:26:27;;;;;;;21.63;4.18;;;;;;;;;;4947338;29;20059;-68
2022/05/08 00:28:56;;;;;;;22.67;4.78;;;;;;;;;;4946759;29;20074;-68
2022/05/08 00:31:24;;;;;;;29.17;4.03;;;;;;;;;;4928395;29;20130;-68
2022/05/08 00:33:51;;;;;;;20.92;4.07;;;;;;;;;;4943578;28;20075;-68
2022/05/08 00:36:18;;;;;;;24.30;3.75;;;;;;;;;;4947665;28;20083;-68
2022/05/08 00:38:45;;;;;;;19.55;4.00;;;;;;;;;;4930284;29;20066;-68
2022/05/08 00:41:13;;;;;;;27.63;4.13;;;;;;;;;;4925539;29;21012;-68
2022/05/08 00:43:40;;;;;;;21.83;4.25;;;;;;;;;;4947292;29;20073;-68
2022/05/08 00:46:10;;;;;;;26.98;4.57;;;;;;;;;;4946367;28;20054;-68
2022/05/08 00:48:37;;;;;;;24.27;3.67;;;;;;;;;;4946355;29;20136;-68
2022/05/08 00:51:06;;;;;;;26.23;5.25;;;;;;;;;;4946884;28;20134;-68
2022/05/08 00:53:35;;;;;;;23.98;4.10;;;;;;;;;;4945712;29;20063;-68
2022/05/08 00:56:03;;;;;;;20.85;4.10;;;;;;;;;;4948125;28;20788;-68
2022/05/08 00:58:30;;;;;;;23.60;3.78;;;;;;;;;;4929186;29;20150;-68
2022/05/08 01:00:58;;;;;;;24.83;4.07;;;;;;;;;;4946835;28;20070;-65
2022/05/08 01:03:26;;;;;;;24.33;3.90;;;;;;;;;;4925282;29;20111;-65
2022/05/08 01:05:55;;;;;;;23.58;4.20;;;;;;;;;;4943015;28;20055;-65
2022/05/08 01:08:22;;;;;;;18.02;4.03;;;;;;;;;;4947095;28;20439;-65
2022/05/08 01:10:49;;;;;;;21.20;3.58;;;;;;;;;;4929196;29;20063;-65
2022/05/08 01:13:17;;;;;;;15.95;3.63;;;;;;;;;;4923422;29;20099;-65
2022/05/08 01:15:44;;;;;;;22.30;4.05;;;;;;;;;;4944509;28;20055;-64
2022/05/08 01:18:13;;;;;;;23.15;4.47;;;;;;;;;;4946168;29;20051;-64
2022/05/08 01:20:41;;;;;;;21.35;3.97;;;;;;;;;;4946634;29;20134;-64
2022/05/08 01:23:11;;;;;;;28.15;3.72;;;;;;;;;;4928887;29;20110;-65
2022/05/08 01:25:45;;;;;;;22.10;3.95;;;;;;;;;;4926969;29;20156;-64
2022/05/08 01:28:13;;;;;;;23.35;3.33;;;;;;;;;;4925298;29;20337;-65
2022/05/08 01:30:40;;;;;;;24.63;3.58;;;;;;;;;;4945669;29;20055;-64
2022/05/08 01:33:08;;;;;;;29.98;4.10;;;;;;;;;;4926987;29;20069;-65
2022/05/08 01:35:35;;;;;;;21.75;3.40;;;;;;;;;;4946549;29;21589;-65
2022/05/08 01:38:03;;;;;;;23.63;3.50;;;;;;;;;;4928650;29;20134;-65
2022/05/08 01:40:31;;;;;;;20.80;3.63;;;;;;;;;;4945605;29;20050;-65
2022/05/08 01:42:59;;;;;;;26.60;3.88;;;;;;;;;;4945934;28;20062;-65
2022/05/08 01:45:26;;;;;;;29.67;4.32;;;;;;;;;;4927753;29;20055;-65
2022/05/08 01:50:39;;;;;;;20.27;3.50;;;;;;;;;;4923813;28;20553;-65
2022/05/08 01:53:07;;;;;;;19.63;3.70;;;;;;;;;;4945799;28;20051;-64
2022/05/08 01:55:36;;;;;;;26.15;4.30;;;;;;;;;;4928076;29;20533;-64
2022/05/08 01:58:03;;;;;;;23.55;3.80;;;;;;;;;;4945007;29;20047;-64
2022/05/08 02:00:31;;;;;;;28.42;4.53;;;;;;;;;;4945396;29;20569;-64
2022/05/08 02:03:00;;;;;;;19.50;4.20;;;;;;;;;;4928463;29;20063;-64
2022/05/08 02:05:28;;;;;;;22.75;3.47;;;;;;;;;;4928169;29;20570;-64
2022/05/08 02:07:55;;;;;;;24.77;3.72;;;;;;;;;;4928440;29;20150;-64
2022/05/08 02:10:23;;;;;;;21.23;4.00;;;;;;;;;;4929362;29;20060;-64
2022/05/08 02:12:51;;;;;;;22.80;3.97;;;;;;;;;;4927834;29;20047;-64
2022/05/08 02:15:18;;;;;;;21.77;3.90;;;;;;;;;;4944130;29;20063;-64
2022/05/08 02:17:46;;;;;;;23.08;3.50;;;;;;;;;;4928279;29;20101;-64
2022/05/08 02:20:13;;;;;;;18.42;3.90;;;;;;;;;;4944320;28;20062;-64
2022/05/08 02:22:40;;;;;;;24.17;3.75;;;;;;;;;;4928902;29;20055;-64
2022/05/08 02:25:08;;;;;;;21.80;3.33;;;;;;;;;;4945281;29;20085;-64
2022/05/08 02:27:36;;;;;;;19.45;2.90;;;;;;;;;;4928969;29;20063;-64
2022/05/08 02:30:06;;;;;;;18.52;3.75;;;;;;;;;;4925878;29;20058;-64
2022/05/08 02:32:34;;;;;;;21.52;3.88;;;;;;;;;;4923531;29;20118;-64
2022/05/08 02:35:01;;;;;;;22.80;4.38;;;;;;;;;;4927047;29;20118;-65
2022/05/08 02:37:28;;;;;;;14.95;2.85;;;;;;;;;;4946233;28;20106;-65
2022/05/08 02:39:55;;;;;;;18.50;3.00;;;;;;;;;;4931415;29;20123;-65
2022/05/08 02:42:22;;;;;;;19.00;3.30;;;;;;;;;;4949735;28;20057;-65
2022/05/08 02:44:50;;;;;;;19.25;3.78;;;;;;;;;;4932265;29;20055;-65
2022/05/08 02:47:18;;;;;;;20.52;3.13;;;;;;;;;;4931687;29;20098;-64
2022/05/08 02:49:45;;;;;;;20.20;3.33;;;;;;;;;;4929002;28;20058;-64
2022/05/08 02:52:13;;;;;;;22.00;3.05;;;;;;;;;;4932665;29;20122;-64
2022/05/08 02:54:40;;;;;;;17.15;3.50;;;;;;;;;;4928335;29;20115;-64
2022/05/08 02:59:52;;;;;;;22.98;2.70;;;;;;;;;;4949060;29;20062;-64
2022/05/08 03:02:20;;;;;;;16.00;2.25;;;;;;;;;;4950922;28;20897;-64
2022/05/08 03:04:48;;;;;;;13.90;2.60;;;;;;;;;;4931520;29;20071;-64
2022/05/08 03:07:15;;;;;;;13.02;2.60;;;;;;;;;;4931905;29;20051;-64
2022/05/08 03:09:42;;;;;;;18.45;2.63;;;;;;;;;;4931662;29;20059;-64
2022/05/08 03:12:10;;;;;;;16.17;2.40;;;;;;;;;;4930402;29;20051;-64
2022/05/08 03:14:39;;;;;;;13.55;2.30;;;;;;;;;;4929496;29;20101;-64
2022/05/08 03:17:07;;;;;;;14.73;2.72;;;;;;;;;;4947878;29;20051;-64
2022/05/08 03:19:36;;;;;;;9.77;2.45;;;;;;;;;;4930645;29;20094;-64
2022/05/08 03:22:03;;;;;;;9.75;2.00;;;;;;;;;;4948374;28;20058;-64
2022/05/08 03:24:31;;;;;;;8.32;2.00;;;;;;;;;;4930918;29;20058;-64
2022/05/08 03:26:58;;;;;;;13.18;2.65;;;;;;;;;;4930602;28;20208;-64
2022/05/08 03:29:26;;;;;;;15.65;2.70;;;;;;;;;;4929865;29;20106;-64
2022/05/08 03:31:53;;;;;;;15.43;2.67;;;;;;;;;;4929354;29;20051;-64
2022/05/08 03:34:21;;;;;;;15.18;2.38;;;;;;;;;;4930046;29;20066;-64
2022/05/08 03:36:49;;;;;;;13.13;2.10;;;;;;;;;;4929786;29;20156;-64
2022/05/08 03:39:17;;;;;;;18.58;2.70;;;;;;;;;;4929330;29;20052;-64
2022/05/08 03:41:44;;;;;;;12.95;2.55;;;;;;;;;;4931049;29;20059;-64
2022/05/08 03:44:11;;;;;;;11.57;2.15;;;;;;;;;;4947966;29;20059;-64
2022/05/08 03:46:38;;;;;;;10.25;2.00;;;;;;;;;;4930482;29;20051;-64
2022/05/08 03:49:05;;;;;;;12.50;1.88;;;;;;;;;;4946936;28;20051;-64
2022/05/08 03:51:32;;;;;;;12.23;2.10;;;;;;;;;;4948420;29;20043;-64
2022/05/08 03:54:02;;;;;;;14.63;2.75;;;;;;;;;;4929837;29;20130;-64
2022/05/08 03:56:29;;;;;;;8.23;1.80;;;;;;;;;;4948380;29;20514;-64
2022/05/08 03:58:56;;;;;;;11.10;2.08;;;;;;;;;;4930298;29;20058;-64
2022/05/08 04:01:23;;;;;;;8.90;1.90;;;;;;;;;;4946689;29;20481;-64
2022/05/08 04:03:50;;;;;;;9.63;2.17;;;;;;;;;;4948415;28;20055;-64
2022/05/08 04:06:17;;;;;;;7.88;1.90;;;;;;;;;;4929927;28;20491;-64
2022/05/08 04:08:45;;;;;;;14.27;2.45;;;;;;;;;;4948541;29;20697;-64
2022/05/08 04:11:13;;;;;;;11.93;1.90;;;;;;;;;;4947175;28;20047;-64
2022/05/08 04:13:40;;;;;;;9.35;2.10;;;;;;;;;;4946696;28;20454;-64
2022/05/08 04:16:16;;;;;;;13.32;2.45;;;;;;;;;;4947072;29;20525;-64
2022/05/08 04:18:43;;;;;;;13.18;2.45;;;;;;;;;;4947576;29;20059;-64
2022/05/08 04:21:10;;;;;;;11.18;1.95;;;;;;;;;;4930387;29;20085;-64
2022/05/08 04:26:24;;;;;;;13.10;2.67;;;;;;;;;;4946414;29;20374;-64
2022/05/08 04:28:51;;;;;;;11.63;2.10;;;;;;;;;;4947593;29;20103;-64
2022/05/08 04:31:18;;;;;;;18.67;2.58;;;;;;;;;;4948036;28;20047;-64
2022/05/08 04:33:45;;;;;;;10.65;1.83;;;;;;;;;;4927637;29;20113;-64
2022/05/08 04:36:13;;;;;;;14.35;2.30;;;;;;;;;;4926677;29;20392;-65
2022/05/08 04:38:40;;;;;;;12.05;2.22;;;;;;;;;;4944303;29;20569;-64
2022/05/08 04:41:07;;;;;;;11.23;2.05;;;;;;;;;;4926260;29;20118;-64
2022/05/08 04:43:36;;;;;;;10.48;1.83;;;;;;;;;;4944482;29;20466;-64
2022/05/08 04:46:03;;;;;;;12.50;2.40;;;;;;;;;;4944397;29;20047;-64
2022/05/08 04:48:30;;;;;;;13.13;2.33;;;;;;;;;;4925231;29;20074;-65
2022/05/08 04:50:57;;;;;;;11.88;2.15;;;;;;;;;;4926054;29;20136;-65
2022/05/08 04:53:24;;;;;;;9.13;1.90;;;;;;;;;;4926781;29;20055;-64
2022/05/08 04:55:52;;;;;;;13.43;2.33;;;;;;;;;;4927326;29;20189;-64
2022/05/08 04:58:19;;;;;;;11.95;1.88;;;;;;;;;;4944178;29;20076;-64
2022/05/08 05:00:47;;;;;;;8.25;1.88;;;;;;;;;;4942922;28;20051;-64
2022/05/08 05:03:14;;;;;;;10.63;1.73;;;;;;;;;;4943806;29;20414;-64
2022/05/08 05:05:42;;;;;;;12.25;2.03;;;;;;;;;;4926886;29;20058;-64
2022/05/08 05:08:09;;;;;;;8.90;2.03;;;;;;;;;;4925923;29;20075;-64
2022/05/08 05:10:36;;;;;;;9.85;2.03;;;;;;;;;;4945004;29;20118;-64
2022/05/08 05:13:03;;;;;;;11.30;1.83;;;;;;;;;;4926021;29;20137;-65
2022/05/08 05:15:30;;;;;;;11.65;1.88;;;;;;;;;;4944329;28;20066;-64
2022/05/08 05:18:01;;;;;;;18.90;2.60;;;;;;;;;;4926319;29;20126;-64
2022/05/08 05:20:29;;;;;;;16.08;2.28;;;;;;;;;;4944201;29;20047;-64
2022/05/08 05:22:56;;;;;;;14.05;2.40;;;;;;;;;;4946143;29;20059;-64
2022/05/08 05:25:23;;;;;;;11.95;2.40;;;;;;;;;;4930016;29;20051;-64
2022/05/08 05:27:51;;;;;;;10.65;1.92;;;;;;;;;;4947665;29;20047;-64
2022/05/08 05:30:18;;;;;;;8.93;2.00;;;;;;;;;;4947496;29;20051;-64
2022/05/08 05:32:45;;;;;;;14.05;2.65;;;;;;;;;;4947149;29;20059;-64
2022/05/08 05:35:14;;;;;;;11.88;2.15;;;;;;;;;;4929196;29;20051;-64
2022/05/08 05:37:41;;;;;;;12.10;2.40;;;;;;;;;;4946398;28;20828;-64
2022/05/08 05:40:09;;;;;;;15.35;2.53;;;;;;;;;;4928183;29;20058;-64
2022/05/08 05:42:36;;;;;;;13.13;2.20;;;;;;;;;;4946302;28;20051;-65
2022/05/08 05:45:04;;;;;;;10.77;2.20;;;;;;;;;;4943161;28;20783;-65
2022/05/08 05:50:17;;;;;;;10.18;2.10;;;;;;;;;;4946440;29;20070;-65
2022/05/08 05:52:45;;;;;;;13.35;1.77;;;;;;;;;;4947062;29;20070;-65
2022/05/08 05:55:12;;;;;;;15.30;2.03;;;;;;;;;;4929484;29;20055;-65
2022/05/08 05:57:39;;;;;;;9.45;1.58;;;;;;;;;;4930064;29;20059;-65
2022/05/08 06:00:08;;;;;;;11.18;2.00;;;;;;;;;;4947359;29;20134;-65
2022/05/08 06:02:35;;;;;;;13.10;2.35;;;;;;;;;;4945653;29;20047;-65
2022/05/08 06:05:02;;;;;;;21.38;2.00;;;;;;;;;;4922608;29;20066;-65
2022/05/08 06:07:31;;;;;;;14.15;2.78;;;;;;;;;;4943051;28;20055;-65
2022/05/08 06:09:58;;;;;;;10.50;1.95;;;;;;;;;;4926212;29;20194;-65
2022/05/08 06:12:25;;;;;;;10.57;1.80;;;;;;;;;;4926862;29;20047;-65
2022/05/08 06:14:52;;;;;;;10.75;1.75;;;;;;;;;;4947392;29;20055;-65
2022/05/08 06:17:20;;;;;;;12.77;2.47;;;;;;;;;;4947004;28;20114;-65
2022/05/08 06:19:47;;;;;;;9.75;2.13;;;;;;;;;;4947403;28;20435;-65
2022/05/08 06:22:14;;;;;;;9.25;1.60;;;;;;;;;;4929796;29;20063;-65
2022/05/08 06:24:43;;;;;;;6.53;1.73;;;;;;;;;;4929385;29;20407;-65
2022/05/08 06:27:10;;;;;;;10.95;1.95;;;;;;;;;;4929296;29;20055;-65
2022/05/08 06:29:37;;;;;;;10.10;1.60;;;;;;;;;;4928747;29;20212;-65
2022/05/08 06:32:05;;;;;;;11.30;2.20;;;;;;;;;;4929651;29;20055;-65
2022/05/08 06:34:33;;;;;;;15.57;2.00;;;;;;;;;;4945971;29;20872;-65
2022/05/08 06:37:00;;;;;;;10.52;2.38;;;;;;;;;;4947628;29;20728;-65
2022/05/08 06:39:28;;;;;;;9.93;1.73;;;;;;;;;;4928786;28;20055;-65
2022/05/08 06:41:57;;;;;;;6.47;1.27;;;;;;;;;;4928742;28;20062;-65
2022/05/08 06:44:24;;;;;;;12.93;1.90;;;;;;;;;;4929591;29;20066;-65
2022/05/08 06:46:51;;;;;;;15.43;2.03;;;;;;;;;;4946756;29;20063;-65
2022/05/08 06:49:18;;;;;;;11.38;1.75;;;;;;;;;;4946846;28;20150;-65
2022/05/08 06:51:47;;;;;;;13.15;1.67;;;;;;;;;;4929745;29;20063;-65
2022/05/08 06:54:14;;;;;;;7.30;1.55;;;;;;;;;;4926451;29;20143;-65
2022/05/08 06:56:41;;;;;;;12.15;2.15;;;;;;;;;;4941678;29;20055;-65
2022/05/08 07:01:55;;;;;;;9.60;1.80;;;;;;;;;;4940790;29;20078;-65
2022/05/08 07:04:22;;;;;;;12.25;1.70;;;;;;;;;;4921978;29;20043;-65
2022/05/08 07:06:52;;;;;;;11.95;2.00;;;;;;;;;;4923114;29;20055;-65
2022/05/08 07:09:19;;;;;;;11.68;2.15;;;;;;;;;;4924564;29;20043;-65
2022/05/08 07:11:47;;;;;;;13.82;1.90;;;;;;;;;;4924547;29;20755;-65
2022/05/08 07:14:16;;;;;;;7.70;2.08;;;;;;;;;;4923974;29;20087;-65
2022/05/08 07:16:43;;;;;;;14.40;1.90;;;;;;;;;;4924414;29;20055;-65
2022/05/08 07:19:11;;;;;;;17.00;2.58;;;;;;;;;;4924707;29;20066;-65
2022/05/08 07:21:38;;;;;;;10.95;2.05;;;;;;;;;;4927491;29;20094;-65
2022/05/08 07:24:06;;;;;;;11.68;2.08;;;;;;;;;;4945980;28;20050;-65
2022/05/08 07:26:33;;;;;;;10.13;1.80;;;;;;;;;;4927638;29;20055;-65
2022/05/08 07:29:00;;;;;;;10.88;2.08;;;;;;;;;;4946046;28;20058;-65
2022/05/08 07:31:29;;;;;;;9.23;1.85;;;;;;;;;;4927804;29;20162;-65
2022/05/08 07:36:37;;;;;;;13.77;1.90;;;;;;;;;;4925765;28;20059;-65
2022/05/08 07:39:04;;;;;;;10.93;1.98;;;;;;;;;;4927359;29;20105;-65
2022/05/08 07:41:32;;;;;;;8.15;1.65;;;;;;;;;;4927633;29;20075;-65
2022/05/08 07:43:59;;;;;;;13.95;2.50;;;;;;;;;;4942348;28;20043;-65
2022/05/08 07:46:26;;;;;;;11.93;1.80;;;;;;;;;;4922248;29;20597;-65
2022/05/08 07:48:55;;;;;;;9.05;1.50;;;;;;;;;;4928684;29;20055;-65
2022/05/08 07:51:22;;;;;;;11.10;1.65;;;;;;;;;;4926457;28;20439;-65
2022/05/08 07:53:49;;;;;;;11.13;1.70;;;;;;;;;;4941493;29;20062;-65
2022/05/08 07:56:16;;;;;;;12.88;2.20;;;;;;;;;;4922676;29;20055;-65
2022/05/08 07:58:43;;;;;;;15.23;1.98;;;;;;;;;;4940339;29;20999;-65
2022/05/08 08:01:11;;;;;;;11.52;1.92;;;;;;;;;;4923028;29;20470;-65
2022/05/08 08:03:41;;;;;;;13.35;1.80;;;;;;;;;;4945081;29;20050;-65
2022/05/08 08:06:09;;;;;;;11.23;1.88;;;;;;;;;;4944083;28;20518;-65
2022/05/08 08:08:36;;;;;;;10.32;1.83;;;;;;;;;;4926222;29;20595;-65
2022/05/08 08:11:05;;;;;;;15.05;2.60;;;;;;;;;;4944558;29;20098;-65
2022/05/08 08:13:32;;;;;;;11.07;1.90;;;;;;;;;;4944927;29;20051;-65
2022/05/08 08:16:00;;;;;;;10.32;1.70;;;;;;;;;;4925392;29;20118;-65
2022/05/08 08:18:27;;;;;;;11.35;1.88;;;;;;;;;;4943739;29;20054;-65
2022/05/08 08:20:54;;;;;;;9.63;1.83;;;;;;;;;;4926235;29;20118;-65
2022/05/08 08:23:23;;;;;;;11.40;2.13;;;;;;;;;;4943482;29;20058;-65
2022/05/08 08:25:51;;;;;;;10.48;2.03;;;;;;;;;;4925850;29;20058;-65
2022/05/08 08:28:18;;;;;;;13.73;1.98;;;;;;;;;;4943893;29;20054;-65
2022/05/08 08:30:45;;;;;;;11.30;2.15;;;;;;;;;;4925935;29;20059;-65
2022/05/08 08:33:12;;;;;;;15.05;2.15;;;;;;;;;;4942515;29;20047;-65
2022/05/08 08:35:40;;;;;;;11.57;1.95;;;;;;;;;;4927278;29;20066;-65
2022/05/08 08:38:07;;;;;;;6.68;1.80;;;;;;;;;;4926102;29;20822;-65
2022/05/08 08:40:40;;;;;;;11.95;2.05;;;;;;;;;;4927172;29;21678;-65
2022/05/08 08:43:09;;;;;;;12.60;1.88;;;;;;;;;;4944441;29;20059;-65
2022/05/08 08:48:27;;;;;;;11.85;1.90;;;;;;;;;;4926389;29;20047;-65
2022/05/08 08:50:55;;;;;;;13.57;2.10;;;;;;;;;;4926731;29;20406;-65
2022/05/08 08:53:22;;;;;;;14.60;2.20;;;;;;;;;;4925220;29;20062;-65
2022/05/08 08:55:51;;;;;;;14.40;2.65;;;;;;;;;;4927308;29;20519;-65
2022/05/08 08:58:19;;;;;;;9.35;1.95;;;;;;;;;;4928239;29;20115;-65
2022/05/08 09:00:47;;;;;;;9.98;1.98;;;;;;;;;;4927784;29;20055;-65
2022/05/08 09:03:19;;;;;;;17.42;2.25;;;;;;;;;;4924022;29;20083;-65
2022/05/08 09:05:46;;;;;;;9.85;2.28;;;;;;;;;;4923804;29;20110;-65
2022/05/08 09:08:26;;;;;;;13.80;2.22;;;;;;;;;;4924934;29;20059;-65
2022/05/08 09:10:56;;;;;;;10.63;2.63;;;;;;;;;;4927025;29;20055;-65
2022/05/08 09:13:24;;;;;;;13.18;2.15;;;;;;;;;;4926288;29;20171;-65
2022/05/08 09:15:53;;;;;;;12.52;2.08;;;;;;;;;;4926942;29;20055;-66
2022/05/08 09:18:20;;;;;;;11.65;2.10;;;;;;;;;;4925079;29;20469;-66
2022/05/08 09:20:48;;;;;;;12.77;2.28;;;;;;;;;;4926097;29;20506;-65
2022/05/08 09:23:16;;;;;;;12.90;2.00;;;;;;;;;;4942696;29;20059;-65
2022/05/08 09:25:44;;;;;;;16.42;2.17;;;;;;;;;;4927251;29;20130;-65
2022/05/08 09:28:13;;;;;;;9.40;2.63;;;;;;;;;;4926247;29;20075;-65
2022/05/08 09:30:56;;;;;;;12.23;2.03;;;;;;;;;;4927115;29;20770;-65
2022/05/08 09:33:23;;;;;;;;;;;;;;;;;;4926219;29;20102;-65
2022/05/08 09:35:51;;;;;;;11.30;2.10;;;;;;;;;;4943997;29;20381;-65
2022/05/08 09:38:18;;;;;;;11.77;1.98;;;;;;;;;;4926672;29;20510;-65
2022/05/08 09:40:46;;;;;;;12.85;2.30;;;;;;;;;;4942783;29;20082;-65
2022/05/08 09:43:30;;;;;;;12.32;2.28;;;;;;;;;;4943823;29;20086;-65
2022/05/08 09:45:58;;;;;;;9.88;1.80;;;;;;;;;;4943617;29;20082;-65
2022/05/08 09:48:26;;;;;;;8.65;2.05;;;;;;;;;;4943238;29;20422;-65
2022/05/08 09:50:55;;;;;;;12.55;2.30;;;;;;;;;;4944135;28;20047;-65
2022/05/08 09:53:22;;;;;;;9.20;1.67;;;;;;;;;;4925617;29;20051;-65
2022/05/08 09:55:49;;;;;;;8.82;2.35;;;;;;;;;;4922492;29;20062;-65
2022/05/08 09:58:17;;;;;;;9.25;1.90;;;;;;;;;;4922372;29;20062;-65
2022/05/08 10:00:46;;;;;;;9.65;2.15;;;;;;;;;;4921143;29;20067;-66
2022/05/08 10:03:13;;;;;;;7.95;1.63;;;;;;;;;;4922111;29;20061;-66
2022/05/08 10:05:42;;;;;;;14.70;2.10;;;;;;;;;;4920815;29;20067;-65
2022/05/08 10:08:09;;;;;;;10.13;2.58;;;;;;;;;;4938762;28;20446;-66
2022/05/08 10:13:56;;;;;;;10.27;1.70;;;;;;;;;;4939637;29;20171;-66
2022/05/08 10:16:42;;;;;;;10.57;1.73;;;;;;;;;;4938606;28;20047;-65
2022/05/08 10:19:24;;;;;;;12.48;2.20;;;;;;;;;;4939632;28;20410;-65
2022/05/08 10:22:06;;;;;;;11.63;1.90;;;;;;;;;;4923771;29;20487;-65
2022/05/08 10:24:34;;;;;;;11.77;2.05;;;;;;;;;;4923954;29;20075;-65
2022/05/08 10:27:12;;;;;;;11.15;2.15;;;;;;;;;;4924079;29;20068;-65
2022/05/08 10:29:39;;;;;;;9.90;2.30;;;;;;;;;;4925095;29;20055;-65
2022/05/08 10:32:09;;;;;;;9.13;2.05;;;;;;;;;;4940522;29;20059;-65
2022/05/08 10:34:37;;;;;;;10.77;2.25;;;;;;;;;;4940990;29;20071;-66
2022/05/08 10:37:23;;;;;;;14.07;2.25;;;;;;;;;;4924190;29;20067;-66
2022/05/08 10:39:53;;;;;;;16.00;2.38;;;;;;;;;;4924076;29;20506;-66
2022/05/08 10:42:45;;;;;;;8.50;2.10;;;;;;;;;;4924825;29;20071;-65
2022/05/08 10:45:33;;;;;;;8.80;1.83;;;;;;;;;;4923117;28;20051;-65
2022/05/08 10:48:01;;;;;;;11.02;2.25;;;;;;;;;;4918876;29;20067;-66
2022/05/08 10:50:28;;;;;;;9.45;2.00;;;;;;;;;;4923649;28;20054;-65
2022/05/08 10:52:57;;;;;;;10.65;1.85;;;;;;;;;;4922088;29;20114;-66
2022/05/08 10:55:26;;;;;;;14.27;2.60;;;;;;;;;;4943211;28;20510;-66
2022/05/08 10:57:54;;;;;;;10.73;2.10;;;;;;;;;;4939269;28;21783;-66
2022/05/08 11:00:22;;;;;;;10.55;2.35;;;;;;;;;;4942072;28;20055;-66
2022/05/08 11:02:50;;;;;;;8.23;1.83;;;;;;;;;;4929121;29;20457;-66
2022/05/08 11:05:18;;;;;;;9.65;2.50;;;;;;;;;;4928214;29;20051;-66
2022/05/08 11:07:49;;;;;;;6.10;2.08;;;;;;;;;;4930644;29;20245;-66
2022/05/08 11:10:18;;;;;;;10.82;2.03;;;;;;;;;;4946095;28;20047;-66
2022/05/08 11:13:06;;;;;;;8.68;2.15;;;;;;;;;;4929276;29;20051;-66
2022/05/08 11:15:36;;;;;;;11.68;2.05;;;;;;;;;;4939532;28;20852;-66
2022/05/08 11:18:04;;;;;;;8.30;2.53;;;;;;;;;;4929670;29;20051;-67
2022/05/08 11:20:33;;;;;;;13.18;2.60;;;;;;;;;;4930192;29;20139;-66
2022/05/08 11:23:00;;;;;;;13.27;2.45;;;;;;;;;;4946423;29;20043;-66
2022/05/08 11:25:28;;;;;;;11.02;2.75;;;;;;;;;;4949110;28;20066;-66
2022/05/08 11:27:55;;;;;;;13.38;2.70;;;;;;;;;;4930788;29;20059;-66
2022/05/08 11:30:32;;;;;;;8.38;2.40;;;;;;;;;;4948417;29;20126;-67
2022/05/08 11:36:06;;;;;;;10.65;2.60;;;;;;;;;;4948254;29;20066;-67
2022/05/08 11:38:42;;;;;;;14.57;2.85;;;;;;;;;;4948279;29;20058;-67
2022/05/08 11:41:10;;;;;;;12.38;2.88;;;;;;;;;;4945632;29;20063;-67
2022/05/08 11:43:38;;;;;;;16.98;2.83;;;;;;;;;;4931001;29;20097;-67
2022/05/08 11:46:05;;;;;;;10.45;2.70;;;;;;;;;;4930672;29;20047;-67
2022/05/08 11:48:37;;;;;;;15.55;3.20;;;;;;;;;;4948881;29;20047;-67
2022/05/08 11:51:05;;;;;;;11.45;2.40;;;;;;;;;;4947518;29;20115;-67
2022/05/08 11:53:39;;;;;;;10.60;2.70;;;;;;;;;;4931563;29;20055;-67
2022/05/08 11:56:21;;;;;;;9.60;2.75;;;;;;;;;;4932052;28;20054;-67
2022/05/08 11:58:49;;;;;;;13.07;3.15;;;;;;;;;;4929647;29;20126;-67
2022/05/08 12:01:22;;;;;;;9.35;2.28;;;;;;;;;;4929321;29;20403;-67
2022/05/08 12:03:50;;;;;;;9.82;2.72;;;;;;;;;;4930776;28;20051;-67
2022/05/08 12:06:17;;;;;;;15.45;2.85;;;;;;;;;;4925199;28;20062;-67
2022/05/08 12:08:45;;;;;;;15.05;3.30;;;;;;;;;;4930431;29;20059;-67
2022/05/08 12:11:28;;;;;;;7.70;2.40;;;;;;;;;;4947412;28;20055;-67
2022/05/08 12:13:55;;;;;;;;;;;;;;;;;;4945987;29;20066;-67
2022/05/08 12:16:22;;;;;;;14.77;2.88;;;;;;;;;;4947781;29;20489;-67
2022/05/08 12:19:08;;;;;;;11.30;2.63;;;;;;;;;;4948114;29;20502;-67
2022/05/08 12:21:36;;;;;;;12.45;3.25;;;;;;;;;;4930407;29;20130;-67
2022/05/08 12:24:08;;;;;;;10.82;2.72;;;;;;;;;;4945692;29;20110;-67
2022/05/08 12:26:35;;;;;;;12.43;3.20;;;;;;;;;;4930446;29;20055;-67
2022/05/08 12:29:03;;;;;;;10.85;2.65;;;;;;;;;;4947199;29;20043;-67
2022/05/08 12:31:30;;;;;;;13.85;2.85;;;;;;;;;;4946758;29;20051;-67
2022/05/08 12:33:57;;;;;;;12.45;3.15;;;;;;;;;;4944026;29;20056;-67
2022/05/08 12:36:24;;;;;;;12.20;3.30;;;;;;;;;;4929519;29;20055;-67
2022/05/08 12:38:53;;;;;;;10.20;2.78;;;;;;;;;;4948092;29;20058;-67
2022/05/08 12:41:20;;;;;;;13.23;2.40;;;;;;;;;;4930470;29;20521;-67
2022/05/08 12:43:47;;;;;;;11.27;2.80;;;;;;;;;;4947352;29;20062;-67
2022/05/08 12:46:14;;;;;;;11.50;2.50;;;;;;;;;;4946802;29;20069;-67
2022/05/08 12:48:42;;;;;;;10.32;2.85;;;;;;;;;;4947939;29;20102;-67
2022/05/08 12:51:09;;;;;;;14.23;3.00;;;;;;;;;;4947326;29;20054;-67
2022/05/08 12:53:36;;;;;;;10.82;2.80;;;;;;;;;;4928537;29;20059;-67
2022/05/08 12:56:05;;;;;;;8.13;2.80;;;;;;;;;;4929374;29;20402;-67
2022/05/08 13:01:17;;;;;;;10.57;2.53;;;;;;;;;;4945725;29;20050;-67
2022/05/08 13:03:44;;;;;;;12.15;2.78;;;;;;;;;;4944754;29;20063;-67
2022/05/08 13:06:13;;;;;;;11.75;2.95;;;;;;;;;;4946702;28;20534;-67
2022/05/08 13:08:40;;;;;;;8.00;2.83;;;;;;;;;;4948050;29;20055;-67
2022/05/08 13:11:08;;;;;;;9.90;3.05;;;;;;;;;;4948212;29;20051;-67
2022/05/08 13:13:37;;;;;;;11.00;2.88;;;;;;;;;;4926778;29;20106;-67
2022/05/08 13:16:04;;;;;;;9.32;2.88;;;;;;;;;;4947261;29;20133;-68
2022/05/08 13:18:31;;;;;;;8.88;2.80;;;;;;;;;;4930299;29;20055;-68
2022/05/08 13:20:59;;;;;;;9.98;2.70;;;;;;;;;;4930528;28;20066;-68
2022/05/08 13:23:26;;;;;;;10.80;2.80;;;;;;;;;;4946356;29;20065;-68
2022/05/08 13:25:54;;;;;;;11.90;2.20;;;;;;;;;;4929695;29;20127;-68
2022/05/08 13:28:22;;;;;;;10.73;2.90;;;;;;;;;;4929688;29;20717;-68
2022/05/08 13:30:49;;;;;;;12.63;2.97;;;;;;;;;;4947203;29;20054;-68
2022/05/08 13:33:17;;;;;;;10.38;2.60;;;;;;;;;;4946978;29;20106;-68
2022/05/08 13:35:44;;;;;;;8.20;2.80;;;;;;;;;;4952273;28;20809;-68
2022/05/08 13:38:11;;;;;;;7.93;2.55;;;;;;;;;;4947654;29;20657;-68
2022/05/08 13:40:39;;;;;;;11.40;2.63;;;;;;;;;;4930442;29;20063;-68
2022/05/08 13:43:06;;;;;;;8.93;2.60;;;;;;;;;;4930109;29;20055;-68
2022/05/08 13:45:35;;;;;;;9.95;2.95;;;;;;;;;;4943924;29;20084;-68
2022/05/08 13:48:02;;;;;;;15.88;2.88;;;;;;;;;;4930473;29;20059;-68
2022/05/08 13:50:30;;;;;;;10.32;2.80;;;;;;;;;;4946740;29;20122;-68
2022/05/08 13:52:57;;;;;;;11.60;2.63;;;;;;;;;;4947590;29;20050;-68
2022/05/08 13:55:24;;;;;;;7.90;2.40;;;;;;;;;;4947283;29;20051;-68
2022/05/08 13:57:54;;;;;;;6.95;2.60;;;;;;;;;;4927219;29;20127;-68
2022/05/08 14:00:21;;;;;;;8.32;2.70;;;;;;;;;;4943381;28;20506;-68
2022/05/08 14:02:50;;;;;;;12.40;3.03;;;;;;;;;;4925794;29;20090;-68
2022/05/08 14:05:18;;;;;;;8.88;2.55;;;;;;;;;;4945275;28;20119;-68
2022/05/08 14:07:45;;;;;;;8.40;2.65;;;;;;;;;;4944729;28;20510;-68
2022/05/08 14:10:13;;;;;;;9.70;2.70;;;;;;;;;;4930056;28;20059;-68
2022/05/08 14:12:40;;;;;;;11.57;2.60;;;;;;;;;;4943200;29;20083;-68
2022/05/08 14:15:08;;;;;;;12.02;3.25;;;;;;;;;;4946593;29;20480;-68
2022/05/08 14:17:35;;;;;;;10.00;2.80;;;;;;;;;;4946809;28;20523;-68
2022/05/08 14:20:04;;;;;;;9.75;3.03;;;;;;;;;;4946899;29;20067;-68
2022/05/08 14:22:32;;;;;;;8.80;2.83;;;;;;;;;;4928243;29;20107;-68
2022/05/08 14:25:01;;;;;;;8.80;2.90;;;;;;;;;;4946835;28;20054;-68
2022/05/08 14:27:28;;;;;;;10.50;2.90;;;;;;;;;;4944979;29;20098;-68
2022/05/08 14:29:56;;;;;;;9.27;3.13;;;;;;;;;;4946964;28;20051;-68
2022/05/08 14:37:55;;;;;;;11.93;3.10;;;;;;;;;;4951057;28;20059;-68
2022/05/08 14:40:24;;;;;;;7.82;2.85;;;;;;;;;;4949578;29;20055;-68
2022/05/08 14:42:51;;;;;;;10.77;2.70;;;;;;;;;;4950819;28;20055;-68
2022/05/08 14:45:18;;;;;;;9.00;2.50;;;;;;;;;;4950819;28;20102;-68
2022/05/08 14:47:45;;;;;;;8.45;2.65;;;;;;;;;;4933814;29;20058;-68
2022/05/08 14:50:14;;;;;;;8.38;3.00;;;;;;;;;;4933195;28;20130;-68
2022/05/08 14:52:41;;;;;;;9.90;2.95;;;;;;;;;;4933182;28;20700;-68
2022/05/08 14:55:09;;;;;;;9.88;3.28;;;;;;;;;;4932754;29;20055;-68
2022/05/08 14:57:36;;;;;;;6.85;2.70;;;;;;;;;;4929189;29;20411;-68
2022/05/08 15:00:03;;;;;;;10.40;3.22;;;;;;;;;;4932512;29;20110;-68
2022/05/08 15:02:30;;;;;;;8.02;2.92;;;;;;;;;;4945876;29;20055;-68
2022/05/08 15:04:57;;;;;;;9.13;2.90;;;;;;;;;;4932615;29;20047;-68
2022/05/08 15:07:26;;;;;;;10.18;3.15;;;;;;;;;;4932802;29;20051;-69
2022/05/08 15:09:53;;;;;;;8.35;3.15;;;;;;;;;;4950414;29;20359;-69
2022/05/08 15:12:20;;;;;;;7.80;2.80;;;;;;;;;;4946553;29;20056;-69
2022/05/08 15:14:48;;;;;;;9.88;3.30;;;;;;;;;;4950307;29;20795;-69